WS14 weather

Lake Ell Field
Amherst, Wisconsin, United States

Public forecast

Using degrees Fahrenheit for public forecast. Weather courtesy of forecast.io.

Closest aviation weather report (METAR) to Lake Ell Field

Closest report is Stevens Point Municipal Airport, 8.8 nm (16.3 km) WNW. Retrieved 2020/02/17 11:35 UTC (21 minutes ago):

KSTE 171135Z AUTO 09006KT 10SM SCT120 M09/M16 A3008 RMK AO2 T10901165

Closest aviation forecast (TAF) to Lake Ell Field

Closest forecast is Central Wisconsin Airport, 23.0 nm (42.5 km) NW. Retrieved 2020/02/17 06:39 UTC (5 hours ago):

TAF KCWA 170536Z 1706/1806 12005KT P6SM BKN040 FM170900 12007KT P6SM BKN030 FM171200 13008KT P6SM -SHSN OVC035 FM171500 14010G17KT 3SM -SN OVC035 FM171700 14010G19KT 1 1/2SM -SN OVC010 FM172200 08004KT 2SM -SHSN OVC008 AMD LTD TO CLD VIS AND WIND TIL 171200